Time;durP1;ratioP1;P1;durP2;ratioP2;P2;SDS_P1;SDS_P2;PMS_P1;PMS_P2;Temp;Humidity;BMP_temperature;BMP_pressure;BME280_temperature;BME280_humidity;BME280_pressure;Samples;Min_cycle;Max_cycle;Signal;HPM_P1;HPM_P2
2022/11/19 00:01:27;;;;;;;15.93;9.90;;;;;;;6.94;100.00;100672.06;5007699;28;20045;-52
2022/11/19 00:03:55;;;;;;;12.15;8.90;;;;;;;6.88;100.00;100675.75;5014189;28;20390;-50
2022/11/19 00:06:24;;;;;;;15.05;10.57;;;;;;;6.93;100.00;100675.84;5006891;28;20092;-49
2022/11/19 00:08:52;;;;;;;14.93;9.73;;;;;;;6.93;100.00;100675.84;4983551;28;20046;-53
2022/11/19 00:14:13;;;;;;;16.20;10.85;;;;;;;6.95;100.00;100679.94;5003166;28;20042;-54
2022/11/19 00:16:42;;;;;;;14.07;9.65;;;;;;;6.93;100.00;100692.09;5015220;28;20480;-51
2022/11/19 00:19:11;;;;;;;14.30;9.50;;;;;;;6.83;100.00;100699.00;4969571;28;20128;-51
2022/11/19 00:21:39;;;;;;;13.77;9.15;;;;;;;6.87;100.00;100696.59;4997595;28;20448;-49
2022/11/19 00:24:07;;;;;;;15.93;9.82;;;;;;;6.79;100.00;100691.59;5016292;28;20038;-51
2022/11/19 00:26:34;;;;;;;15.10;9.35;;;;;;;6.80;100.00;100688.63;5016021;28;20092;-51
2022/11/19 00:29:02;;;;;;;11.93;8.30;;;;;;;6.79;100.00;100694.31;4991320;28;20396;-52
2022/11/19 00:31:31;;;;;;;13.75;9.10;;;;;;;6.55;100.00;100696.34;4979343;28;20050;-50
2022/11/19 00:33:59;;;;;;;13.45;8.68;;;;;;;6.39;100.00;100696.06;4999339;28;20074;-51
2022/11/19 00:36:27;;;;;;;11.50;8.25;;;;;;;6.33;100.00;100696.22;4985278;28;20042;-52
2022/11/19 00:38:55;;;;;;;13.93;9.00;;;;;;;6.29;100.00;100701.28;5008993;28;20476;-53
2022/11/19 00:41:22;;;;;;;11.55;7.93;;;;;;;6.32;100.00;100691.88;5003665;28;20046;-50
2022/11/19 00:43:50;;;;;;;11.70;8.45;;;;;;;6.30;100.00;100712.94;4997989;28;20539;-51
2022/11/19 00:46:17;;;;;;;12.57;9.27;;;;;;;6.11;100.00;100707.75;4984108;28;20039;-50
2022/11/19 00:48:47;;;;;;;13.40;8.60;;;;;;;6.19;100.00;100711.94;5002171;28;20046;-49
2022/11/19 00:51:15;;;;;;;12.07;8.73;;;;;;;6.38;100.00;100707.16;4998812;28;20092;-51
2022/11/19 00:53:43;;;;;;;15.18;9.77;;;;;;;6.50;100.00;100696.25;5007048;28;20100;-53
2022/11/19 00:56:12;;;;;;;12.32;8.20;;;;;;;6.46;100.00;100705.94;5016363;28;20049;-55
2022/11/19 00:58:40;;;;;;;13.48;9.38;;;;;;;6.38;100.00;100707.97;5012117;28;20057;-51
2022/11/19 01:01:09;;;;;;;14.10;9.15;;;;;;;6.49;100.00;100714.38;4969475;28;20444;-50
2022/11/19 01:03:39;;;;;;;13.45;9.25;;;;;;;6.35;100.00;100719.28;5004329;28;20038;-51
2022/11/19 01:06:07;;;;;;;11.77;7.95;;;;;;;6.26;100.00;100720.72;4997797;28;20038;-52
2022/11/19 01:08:35;;;;;;;11.63;8.15;;;;;;;6.23;100.00;100713.09;5008679;28;20059;-53
2022/11/19 01:11:17;;;;;;;13.38;9.18;;;;;;;6.24;100.00;100717.44;4996479;28;20054;-53
2022/11/19 01:13:45;;;;;;;10.90;7.38;;;;;;;6.31;100.00;100718.13;4976984;28;20044;-49
2022/11/19 01:16:27;;;;;;;13.35;8.75;;;;;;;6.27;100.00;100719.66;4981308;28;20045;-54
2022/11/19 01:18:55;;;;;;;11.38;7.75;;;;;;;6.10;100.00;100724.19;5007901;28;20062;-49
2022/11/19 01:21:25;;;;;;;11.95;8.02;;;;;;;6.14;100.00;100720.78;5009211;28;22126;-50
2022/11/19 01:23:54;;;;;;;13.15;8.70;;;;;;;6.23;100.00;100731.19;5005690;28;20054;-51
2022/11/19 01:26:22;;;;;;;13.05;8.15;;;;;;;6.30;100.00;100730.00;5015037;28;20173;-51
2022/11/19 01:28:49;;;;;;;12.43;7.80;;;;;;;6.18;100.00;100730.06;4994902;28;20046;-50
2022/11/19 01:31:20;;;;;;;12.07;8.00;;;;;;;6.14;100.00;100731.59;5014569;28;20056;-50
2022/11/19 01:33:48;;;;;;;13.45;8.60;;;;;;;6.27;100.00;100737.78;5003958;28;20088;-51
2022/11/19 01:36:24;;;;;;;11.02;7.50;;;;;;;6.13;100.00;100734.53;5005838;28;20038;-49
2022/11/19 01:38:53;;;;;;;12.35;7.88;;;;;;;6.07;100.00;100739.03;4989172;28;20073;-52
2022/11/19 01:41:24;;;;;;;13.68;8.50;;;;;;;6.00;100.00;100742.94;4978043;28;20052;-53
2022/11/19 01:43:55;;;;;;;11.60;8.32;;;;;;;6.02;100.00;100749.75;5003041;28;20104;-51
2022/11/19 01:46:32;;;;;;;12.25;7.72;;;;;;;6.02;100.00;100748.94;5008746;28;20046;-53
2022/11/19 01:49:07;;;;;;;12.13;8.27;;;;;;;6.14;100.00;100755.94;4959580;28;20046;-51
2022/11/19 01:51:42;;;;;;;12.90;8.40;;;;;;;6.10;100.00;100756.66;4986616;28;20045;-51
2022/11/19 01:54:44;;;;;;;12.48;8.70;;;;;;;6.01;100.00;100758.91;5004581;28;20415;-52
2022/11/19 01:57:14;;;;;;;11.23;6.93;;;;;;;5.88;100.00;100759.16;4968385;28;20459;-51
2022/11/19 01:59:43;;;;;;;11.90;8.18;;;;;;;5.68;100.00;100773.06;4988271;28;20045;-54
2022/11/19 02:02:10;;;;;;;12.77;8.32;;;;;;;5.53;100.00;100777.06;4996747;28;20045;-50
2022/11/19 02:04:39;;;;;;;13.63;7.55;;;;;;;5.58;100.00;100773.66;4982647;28;20039;-52
2022/11/19 02:07:07;;;;;;;11.68;7.47;;;;;;;5.61;100.00;100772.38;5008233;28;20073;-52
2022/11/19 02:09:35;;;;;;;12.73;7.65;;;;;;;5.56;100.00;100770.38;4981862;28;20417;-54
2022/11/19 02:12:29;;;;;;;12.82;8.10;;;;;;;5.47;100.00;100777.19;4978001;28;20051;-54
2022/11/19 02:14:57;;;;;;;9.20;6.18;;;;;;;5.45;100.00;100773.88;4995167;28;20041;-53
2022/11/19 02:17:58;;;;;;;9.30;6.25;;;;;;;5.53;100.00;100777.06;5012589;28;20504;-51
2022/11/19 02:20:43;;;;;;;10.43;7.63;;;;;;;5.58;100.00;100784.47;4987659;28;20042;-55
2022/11/19 02:23:33;;;;;;;12.67;7.50;;;;;;;5.55;100.00;100791.13;4965909;28;20038;-53
2022/11/19 02:26:38;;;;;;;11.65;7.68;;;;;;;5.45;100.00;100788.22;5012910;28;20046;-54
2022/11/19 02:29:09;;;;;;;;;;;;;;;5.45;100.00;100796.31;4912856;29;20044;-53
2022/11/19 02:31:56;;;;;;;10.77;6.80;;;;;;;5.50;100.00;100788.31;4984972;28;19921;-57
2022/11/19 02:34:44;;;;;;;10.68;7.15;;;;;;;5.43;100.00;100787.63;4978709;28;20042;-54
2022/11/19 02:37:22;;;;;;;11.40;7.60;;;;;;;5.42;100.00;100791.38;5005104;28;20045;-53
2022/11/19 02:39:52;;;;;;;13.13;7.85;;;;;;;5.22;100.00;100785.50;4982740;28;20114;-54
2022/11/19 02:42:36;;;;;;;10.95;8.00;;;;;;;5.24;100.00;100796.88;5003957;28;20057;-52
2022/11/19 02:45:13;;;;;;;12.65;8.80;;;;;;;5.24;100.00;100791.47;4973555;28;20068;-49
2022/11/19 02:47:55;;;;;;;11.75;8.40;;;;;;;5.28;100.00;100798.06;4988014;28;20038;-55
2022/11/19 02:50:27;;;;;;;12.18;8.68;;;;;;;5.11;100.00;100790.66;4968806;28;20042;-55
2022/11/19 02:52:55;;;;;;;13.00;9.27;;;;;;;5.08;100.00;100791.13;4976490;28;20046;-52
2022/11/19 02:55:23;;;;;;;13.18;8.40;;;;;;;5.07;100.00;100789.47;4991549;28;20447;-52
2022/11/19 02:58:08;;;;;;;13.02;9.05;;;;;;;5.17;100.00;100786.22;5000019;28;20030;-50
2022/11/19 03:06:26;;;;;;;14.05;10.13;;;;;;;5.21;100.00;100781.16;5012905;28;20038;-51
2022/11/19 03:08:53;;;;;;;13.45;8.02;;;;;;;5.19;100.00;100780.56;5002723;28;20034;-53
2022/11/19 03:11:27;;;;;;;13.90;10.15;;;;;;;5.27;100.00;100785.63;5013492;28;20412;-52
2022/11/19 03:17:14;;;;;;;15.40;11.13;;;;;;;5.21;100.00;100792.78;5012565;28;20038;-50
2022/11/19 03:19:55;;;;;;;12.75;9.13;;;;;;;5.11;100.00;100798.75;4974985;28;20070;-51
2022/11/19 03:22:24;;;;;;;13.05;9.70;;;;;;;5.22;100.00;100797.13;5005489;28;20034;-52
2022/11/19 03:24:59;;;;;;;14.20;10.60;;;;;;;5.28;98.92;100796.19;4988202;28;20089;-52
2022/11/19 03:27:41;;;;;;;14.20;9.43;;;;;;;5.40;99.06;100803.50;5006187;28;20041;-52
2022/11/19 03:30:10;;;;;;;13.75;9.98;;;;;;;5.29;98.05;100807.81;4958644;28;20413;-52
2022/11/19 03:32:49;;;;;;;14.75;10.25;;;;;;;5.25;98.62;100806.66;4986303;28;20481;-50
2022/11/19 03:35:25;;;;;;;14.15;10.75;;;;;;;5.26;98.28;100808.28;4986200;28;20047;-53
2022/11/19 03:37:54;;;;;;;14.35;9.77;;;;;;;5.14;98.85;100810.97;4972220;28;20397;-52
2022/11/19 03:40:23;;;;;;;13.68;9.85;;;;;;;5.11;99.13;100822.25;4996060;28;20065;-51
2022/11/19 03:42:53;;;;;;;14.68;9.68;;;;;;;5.11;97.77;100819.53;5017249;28;20129;-53
2022/11/19 03:45:26;;;;;;;15.38;11.07;;;;;;;5.16;97.73;100813.44;5016976;28;20471;-52
2022/11/19 03:47:55;;;;;;;15.75;11.82;;;;;;;5.07;97.27;100815.66;4981728;28;20101;-50
2022/11/19 03:50:39;;;;;;;12.88;9.93;;;;;;;5.06;97.99;100820.22;4996262;28;20077;-52
2022/11/19 03:53:07;;;;;;;16.30;12.63;;;;;;;4.93;97.07;100820.44;4991096;28;20042;-53
2022/11/19 03:55:39;;;;;;;16.27;11.95;;;;;;;4.96;98.01;100817.28;4999624;28;20503;-50
2022/11/19 03:58:08;;;;;;;14.82;12.27;;;;;;;4.91;97.06;100817.97;4982434;28;20151;-52
2022/11/19 04:00:36;;;;;;;18.92;12.70;;;;;;;4.80;97.21;100817.94;4981247;28;20370;-52
2022/11/19 04:03:04;;;;;;;15.80;13.02;;;;;;;4.83;97.83;100822.84;4997695;28;20133;-53
2022/11/19 04:05:31;;;;;;;17.33;11.73;;;;;;;4.84;97.17;100821.81;4998693;28;20046;-53
2022/11/19 04:07:59;;;;;;;16.67;13.23;;;;;;;4.78;96.06;100828.13;5011280;28;20100;-51
2022/11/19 04:10:26;;;;;;;16.27;13.13;;;;;;;4.73;96.45;100830.69;5008372;28;20046;-49
2022/11/19 04:12:54;;;;;;;17.10;13.70;;;;;;;4.65;96.33;100834.53;5012918;28;20519;-51
2022/11/19 04:15:22;;;;;;;16.70;13.80;;;;;;;4.58;95.64;100837.31;5016680;28;20042;-49
2022/11/19 04:17:49;;;;;;;15.73;12.10;;;;;;;4.48;97.42;100839.75;5007343;28;20046;-50
2022/11/19 04:20:17;;;;;;;17.52;12.75;;;;;;;4.57;98.02;100842.94;5016897;28;20046;-54
2022/11/19 04:22:45;;;;;;;16.83;13.40;;;;;;;4.75;96.01;100850.19;5000302;28;20054;-51
2022/11/19 04:25:12;;;;;;;16.63;13.05;;;;;;;4.87;96.13;100851.06;4983905;28;20105;-52
2022/11/19 04:27:40;;;;;;;17.20;13.25;;;;;;;4.86;95.46;100857.53;5002158;28;20037;-51
2022/11/19 04:30:08;;;;;;;12.70;9.65;;;;;;;4.67;94.33;100862.13;5008323;28;20046;-52
2022/11/19 04:32:36;;;;;;;15.35;13.07;;;;;;;4.56;95.56;100860.19;5015543;28;20038;-53
2022/11/19 04:35:04;;;;;;;14.60;11.18;;;;;;;4.53;96.19;100860.66;4995768;28;20037;-51
2022/11/19 04:37:31;;;;;;;16.85;13.93;;;;;;;4.60;96.29;100862.22;4981145;28;20046;-53
2022/11/19 04:39:59;;;;;;;16.85;13.80;;;;;;;4.63;94.96;100864.44;5008144;28;20045;-54
2022/11/19 04:42:27;;;;;;;17.98;14.65;;;;;;;4.62;94.75;100872.78;4987200;28;20041;-54
2022/11/19 04:44:54;;;;;;;17.08;14.13;;;;;;;4.57;95.08;100870.78;5003474;28;20092;-55
2022/11/19 04:47:22;;;;;;;16.40;11.85;;;;;;;4.32;95.17;100872.72;5006974;28;20057;-53
2022/11/19 04:49:50;;;;;;;17.83;14.00;;;;;;;4.20;97.43;100878.84;5009500;28;20038;-52
2022/11/19 04:52:17;;;;;;;17.48;14.55;;;;;;;4.26;96.48;100872.59;5015552;28;20076;-51
2022/11/19 04:54:45;;;;;;;18.00;13.57;;;;;;;4.32;96.81;100878.94;4998341;28;20045;-53
2022/11/19 04:57:12;;;;;;;20.15;15.27;;;;;;;4.44;96.56;100879.81;5010679;28;20045;-52
2022/11/19 04:59:40;;;;;;;17.05;14.07;;;;;;;4.43;95.64;100869.28;5009469;28;20035;-62
2022/11/19 05:02:07;;;;;;;17.10;14.68;;;;;;;4.43;95.37;100878.19;5005442;28;20070;-52
2022/11/19 05:04:35;;;;;;;19.25;15.40;;;;;;;4.46;95.48;100874.22;5015386;28;20050;-55
2022/11/19 05:07:03;;;;;;;15.77;13.35;;;;;;;4.39;95.65;100884.25;4980191;28;20054;-53
2022/11/19 05:09:31;;;;;;;16.33;13.85;;;;;;;4.45;95.64;100878.78;5012714;28;20440;-57
2022/11/19 05:11:58;;;;;;;16.33;13.80;;;;;;;4.38;94.32;100882.63;4998302;28;20097;-51
2022/11/19 05:14:26;;;;;;;19.05;15.88;;;;;;;4.25;94.73;100887.09;5007692;28;20038;-52
2022/11/19 05:16:57;;;;;;;14.82;12.32;;;;;;;4.27;94.76;100886.88;5003249;28;20042;-51
2022/11/19 05:19:24;;;;;;;18.38;16.05;;;;;;;4.27;94.68;100887.69;5015057;28;20046;-53
2022/11/19 05:21:52;;;;;;;20.63;17.25;;;;;;;4.10;95.25;100894.75;4999036;28;20136;-53
2022/11/19 05:24:19;;;;;;;19.35;16.63;;;;;;;3.99;96.36;100898.16;5004577;28;20054;-51
2022/11/19 05:26:47;;;;;;;20.15;17.50;;;;;;;3.96;95.85;100898.63;4977777;28;20050;-51
2022/11/19 05:29:15;;;;;;;20.30;16.92;;;;;;;3.85;96.62;100908.28;5013653;28;20141;-51
2022/11/19 05:31:42;;;;;;;19.55;17.30;;;;;;;3.95;96.54;100907.75;5000068;28;20424;-50
2022/11/19 05:34:10;;;;;;;17.55;15.68;;;;;;;3.99;96.52;100906.25;4981134;28;20077;-52
2022/11/19 05:36:37;;;;;;;21.88;17.90;;;;;;;4.08;95.82;100915.69;5006144;28;20090;-50
2022/11/19 05:39:05;;;;;;;20.83;17.25;;;;;;;4.16;95.38;100920.81;5007701;28;20388;-54
2022/11/19 05:41:33;;;;;;;20.30;17.25;;;;;;;4.20;95.84;100919.31;5009257;28;20047;-51
2022/11/19 05:44:01;;;;;;;22.83;18.80;;;;;;;4.28;94.28;100926.28;5009292;28;20037;-50
2022/11/19 05:46:29;;;;;;;20.15;16.50;;;;;;;4.17;95.20;100925.16;4984410;28;20484;-49
2022/11/19 05:48:56;;;;;;;19.23;16.98;;;;;;;4.09;94.88;100930.84;5012193;28;20511;-48
2022/11/19 05:51:24;;;;;;;20.42;17.83;;;;;;;4.02;95.51;100932.78;5013819;28;20038;-48
2022/11/19 05:53:51;;;;;;;22.17;17.77;;;;;;;4.10;95.09;100940.56;4992079;28;20034;-48
2022/11/19 05:56:19;;;;;;;21.60;18.13;;;;;;;4.04;95.34;100930.66;4978177;28;20042;-48
2022/11/19 05:58:47;;;;;;;19.98;17.20;;;;;;;3.90;96.29;100935.38;4987151;28;20042;-49
2022/11/19 06:01:14;;;;;;;21.67;18.58;;;;;;;3.90;95.93;100939.94;4996605;28;20112;-49
2022/11/19 06:03:42;;;;;;;20.55;17.48;;;;;;;3.97;95.18;100940.69;4985085;28;20576;-49
2022/11/19 06:06:10;;;;;;;20.73;18.40;;;;;;;3.88;94.51;100947.44;5009211;28;20488;-48
2022/11/19 06:08:38;;;;;;;21.52;17.55;;;;;;;3.89;95.71;100951.75;5014122;28;20060;-50
2022/11/19 06:11:06;;;;;;;20.80;18.60;;;;;;;3.78;93.77;100943.34;4983454;28;20133;-47
2022/11/19 06:13:33;;;;;;;19.23;16.70;;;;;;;3.74;95.05;100944.00;5006428;28;20060;-48
2022/11/19 06:16:01;;;;;;;23.00;19.33;;;;;;;3.61;94.79;100948.47;5004995;28;20042;-48
2022/11/19 06:18:28;;;;;;;21.00;18.65;;;;;;;3.65;95.97;100945.31;5000741;28;20050;-50
2022/11/19 06:20:56;;;;;;;20.55;17.48;;;;;;;3.68;95.44;100953.81;5013889;28;20511;-51
2022/11/19 06:23:23;;;;;;;22.27;19.33;;;;;;;3.75;95.53;100962.66;5012591;28;20046;-52
2022/11/19 06:25:53;;;;;;;22.50;19.40;;;;;;;3.75;94.28;100964.50;4999212;28;20034;-47
2022/11/19 06:28:21;;;;;;;22.13;17.95;;;;;;;3.73;96.17;100959.34;4982535;28;20035;-50
2022/11/19 06:30:48;;;;;;;20.75;17.48;;;;;;;3.79;95.12;100966.56;5010940;28;20097;-50
2022/11/19 06:33:16;;;;;;;20.70;17.02;;;;;;;3.82;94.79;100970.69;4995910;28;20046;-51
2022/11/19 06:35:43;;;;;;;25.58;20.80;;;;;;;3.70;94.73;100977.81;4997887;28;20081;-49
2022/11/19 06:38:11;;;;;;;23.55;19.73;;;;;;;3.70;94.93;100978.63;4995993;28;20455;-51
2022/11/19 06:40:38;;;;;;;20.45;17.17;;;;;;;3.81;94.34;100977.13;5004120;28;20084;-52
2022/11/19 06:43:06;;;;;;;20.83;17.33;;;;;;;3.82;94.28;100984.16;5008515;28;20130;-50
2022/11/19 06:45:34;;;;;;;19.98;16.30;;;;;;;3.86;94.64;100985.38;4997787;28;20053;-50
2022/11/19 06:48:01;;;;;;;22.73;18.70;;;;;;;3.77;94.25;100994.75;4979509;28;20049;-53
2022/11/19 06:50:29;;;;;;;22.35;18.40;;;;;;;3.73;94.38;100993.53;4982813;28;20049;-51
2022/11/19 06:52:57;;;;;;;22.88;19.30;;;;;;;3.75;95.11;100997.69;4988380;28;20078;-49
2022/11/19 06:55:26;;;;;;;25.40;20.08;;;;;;;3.74;93.31;100998.72;4998859;28;20098;-49
2022/11/19 06:57:53;;;;;;;25.13;20.85;;;;;;;3.63;94.34;100994.88;5011847;28;20067;-48
2022/11/19 07:00:21;;;;;;;22.38;19.35;;;;;;;3.49;94.64;100993.31;4995694;28;20050;-53
2022/11/19 07:02:49;;;;;;;25.35;19.13;;;;;;;3.51;95.08;101001.16;4961971;28;20046;-50
2022/11/19 07:05:16;;;;;;;24.75;19.00;;;;;;;3.41;94.48;101013.22;5006130;28;20068;-51
2022/11/19 07:07:44;;;;;;;24.20;19.80;;;;;;;3.53;93.73;101016.06;4972830;28;20101;-50
2022/11/19 07:10:11;;;;;;;24.15;19.25;;;;;;;3.60;94.08;101021.41;4993317;28;20089;-49
2022/11/19 07:12:39;;;;;;;24.60;19.73;;;;;;;3.61;93.21;101004.22;4992617;28;20117;-48
2022/11/19 07:15:07;;;;;;;20.15;16.17;;;;;;;3.77;93.29;101010.94;4993041;28;20050;-48
2022/11/19 07:17:35;;;;;;;25.15;20.02;;;;;;;3.79;91.31;101015.06;4987644;28;20085;-50
2022/11/19 07:20:07;;;;;;;24.95;21.13;;;;;;;3.68;91.61;101021.16;4993080;28;20676;-50
2022/11/19 07:22:35;;;;;;;25.30;21.58;;;;;;;3.54;93.38;101027.69;4994789;28;20129;-51
2022/11/19 07:25:03;;;;;;;27.17;22.27;;;;;;;3.38;92.83;101018.22;5004712;28;20425;-49
2022/11/19 07:27:30;;;;;;;28.58;22.70;;;;;;;3.51;93.36;101018.16;4980968;28;20046;-53
2022/11/19 07:29:58;;;;;;;28.55;23.58;;;;;;;3.51;92.15;101026.25;4987854;28;20034;-51
2022/11/19 07:32:26;;;;;;;28.42;22.88;;;;;;;3.46;92.38;101027.91;4976415;28;20047;-50
2022/11/19 07:34:53;;;;;;;26.60;22.20;;;;;;;3.42;92.41;101041.81;5003637;28;20472;-52
2022/11/19 07:37:21;;;;;;;27.33;22.50;;;;;;;3.41;92.85;101045.53;5008498;28;20048;-50
2022/11/19 07:39:49;;;;;;;29.42;24.00;;;;;;;3.41;92.61;101045.53;4998511;28;20480;-51
2022/11/19 07:45:08;;;;;;;26.83;21.90;;;;;;;3.54;92.86;101043.84;4983937;28;20408;-52
2022/11/19 07:47:36;;;;;;;28.65;23.10;;;;;;;3.52;92.93;101049.44;5009843;28;20064;-51
2022/11/19 07:50:04;;;;;;;29.67;21.65;;;;;;;3.53;93.53;101047.56;5012689;28;20050;-51
2022/11/19 07:52:31;;;;;;;26.00;21.42;;;;;;;3.50;92.99;101053.38;5009967;28;20077;-52
2022/11/19 07:54:59;;;;;;;23.45;20.58;;;;;;;3.27;93.07;101046.69;5010300;28;20068;-54
2022/11/19 07:57:27;;;;;;;26.13;21.85;;;;;;;3.20;93.92;101049.38;5008036;28;20550;-55
2022/11/19 07:59:57;;;;;;;27.30;21.58;;;;;;;3.06;94.12;101052.34;4996455;28;20129;-54
2022/11/19 08:02:24;;;;;;;25.55;20.77;;;;;;;3.24;94.87;101054.34;4986714;28;20046;-51
2022/11/19 08:04:52;;;;;;;25.85;20.88;;;;;;;3.45;93.63;101064.00;5012350;28;20492;-49
2022/11/19 08:07:19;;;;;;;29.30;21.30;;;;;;;3.36;92.54;101061.53;5011002;28;20053;-50
2022/11/19 08:09:47;;;;;;;28.42;21.80;;;;;;;3.39;91.66;101066.50;5011173;28;20044;-50
2022/11/19 08:12:15;;;;;;;26.35;20.90;;;;;;;3.33;91.94;101063.84;5008117;28;20089;-50
2022/11/19 08:14:42;;;;;;;25.08;20.38;;;;;;;3.37;93.17;101065.88;5002653;28;20042;-51
2022/11/19 08:19:56;;;;;;;24.52;20.38;;;;;;;3.28;92.15;101086.03;5010224;28;20042;-52
2022/11/19 08:22:23;;;;;;;27.30;20.52;;;;;;;3.24;93.42;101087.47;4996569;28;20038;-51
2022/11/19 08:24:51;;;;;;;25.63;21.45;;;;;;;3.23;92.52;101082.31;5002773;28;20157;-51
2022/11/19 08:27:18;;;;;;;26.10;19.77;;;;;;;3.19;91.95;101080.03;5001919;28;20089;-53
2022/11/19 08:29:46;;;;;;;30.65;20.58;;;;;;;3.37;92.74;101089.31;5015594;28;20042;-54
2022/11/19 08:32:14;;;;;;;25.60;20.85;;;;;;;3.42;90.96;101090.31;5008112;28;20073;-52
2022/11/19 08:34:41;;;;;;;28.52;19.08;;;;;;;3.44;90.71;101103.56;4969091;28;20042;-53
2022/11/19 08:37:12;;;;;;;25.52;20.55;;;;;;;3.38;90.25;101099.84;5006787;28;20057;-53
2022/11/19 08:39:40;;;;;;;28.08;18.98;;;;;;;3.29;91.97;101106.50;5016191;28;20042;-54
2022/11/19 08:44:54;;;;;;;24.45;19.60;;;;;;;3.30;91.07;101091.19;4994261;28;20046;-51
2022/11/19 08:47:22;;;;;;;26.35;18.90;;;;;;;3.25;90.97;101099.91;4995863;28;20045;-52
2022/11/19 08:49:49;;;;;;;25.55;20.27;;;;;;;3.31;92.16;101103.63;4996151;28;20120;-52
2022/11/19 08:52:17;;;;;;;27.15;19.60;;;;;;;3.32;90.91;101106.09;4974775;28;20050;-52
2022/11/19 08:54:45;;;;;;;22.65;18.63;;;;;;;3.28;91.33;101109.44;4984735;28;20045;-53
2022/11/19 08:57:12;;;;;;;26.25;20.10;;;;;;;3.36;91.76;101107.31;4995461;28;20844;-53
2022/11/19 08:59:40;;;;;;;27.73;18.65;;;;;;;3.33;90.83;101110.44;4996016;28;20042;-51
2022/11/19 09:02:10;;;;;;;26.05;19.40;;;;;;;3.19;91.28;101106.13;4995324;28;20113;-51
2022/11/19 09:04:37;;;;;;;25.25;18.13;;;;;;;3.20;90.97;101113.19;4976062;28;20449;-51
2022/11/19 09:07:05;;;;;;;24.48;17.92;;;;;;;3.35;91.86;101112.94;4995697;28;20046;-55
2022/11/19 09:09:32;;;;;;;23.02;18.27;;;;;;;3.38;90.96;101116.00;4995481;28;20133;-51
2022/11/19 09:12:00;;;;;;;23.00;18.67;;;;;;;3.31;91.02;101119.78;4995365;28;20493;-51
2022/11/19 09:14:28;;;;;;;23.13;17.70;;;;;;;3.30;91.19;101121.66;4993690;28;20042;-49
2022/11/19 09:16:55;;;;;;;25.15;16.90;;;;;;;3.31;92.03;101115.19;4995229;28;20093;-49
2022/11/19 09:19:23;;;;;;;24.33;19.38;;;;;;;3.39;90.83;101117.69;4989604;28;20420;-52
2022/11/19 09:21:50;;;;;;;24.33;18.50;;;;;;;3.10;90.37;101123.56;4996492;28;20046;-53
2022/11/19 09:24:19;;;;;;;24.70;19.15;;;;;;;2.95;90.73;101116.53;4988945;28;20544;-49
2022/11/19 09:26:47;;;;;;;29.08;16.40;;;;;;;2.86;92.12;101125.06;4995392;28;20038;-49
2022/11/19 09:29:19;;;;;;;23.63;18.08;;;;;;;2.94;92.49;101125.66;5004766;28;20065;-50
2022/11/19 09:31:47;;;;;;;26.02;18.95;;;;;;;2.91;91.00;101130.63;5005633;28;20049;-50
2022/11/19 09:34:14;;;;;;;22.45;18.67;;;;;;;2.94;91.94;101124.84;5009254;28;20042;-50
2022/11/19 09:36:42;;;;;;;23.20;18.42;;;;;;;3.03;91.48;101130.81;4989182;28;20038;-51
2022/11/19 09:39:10;;;;;;;21.38;17.85;;;;;;;3.15;91.48;101142.59;4978907;28;20089;-51
2022/11/19 09:41:59;;;;;;;22.13;16.52;;;;;;;3.06;90.80;101138.50;5004993;28;20104;-53
2022/11/19 09:44:51;;;;;;;26.50;17.50;;;;;;;3.13;90.96;101144.69;5013267;28;20042;-51
2022/11/19 09:47:52;;;;;;;23.77;17.85;;;;;;;3.19;88.62;101155.41;4990819;28;20085;-52
2022/11/19 09:50:28;;;;;;;21.70;17.58;;;;;;;3.13;89.42;101158.97;5009620;28;20393;-48
2022/11/19 09:53:10;;;;;;;23.85;18.15;;;;;;;2.77;88.73;101162.94;4999628;28;20050;-51
2022/11/19 09:55:41;;;;;;;21.20;17.00;;;;;;;2.79;90.16;101176.22;4991616;28;20593;-51
2022/11/19 09:58:32;;;;;;;23.95;17.08;;;;;;;2.79;90.44;101168.13;4977836;28;20069;-53
2022/11/19 10:01:00;;;;;;;22.40;16.80;;;;;;;2.88;89.14;101169.56;4979604;28;20058;-51
2022/11/19 10:03:27;;;;;;;20.80;17.23;;;;;;;2.97;89.24;101168.31;4977034;28;20047;-52
2022/11/19 10:06:24;;;;;;;21.10;17.35;;;;;;;2.92;89.59;101170.81;4972631;28;20517;-52
2022/11/19 10:09:13;;;;;;;21.48;16.63;;;;;;;2.86;90.11;101177.03;4996965;28;20037;-52
2022/11/19 10:12:18;;;;;;;20.17;16.63;;;;;;;2.98;88.97;101179.88;5006772;28;20471;-54
2022/11/19 10:14:58;;;;;;;21.13;15.43;;;;;;;2.91;88.47;101179.06;5012272;28;20057;-53
2022/11/19 10:17:46;;;;;;;21.20;15.93;;;;;;;2.85;89.02;101178.06;4984458;28;20397;-51
2022/11/19 10:20:39;;;;;;;21.88;16.10;;;;;;;2.63;88.81;101177.44;4981239;28;20401;-52
2022/11/19 10:23:18;;;;;;;22.88;15.55;;;;;;;2.83;89.37;101174.72;5002965;28;20057;-53
2022/11/19 10:25:48;;;;;;;19.65;14.75;;;;;;;2.92;88.22;101175.38;4964577;28;20042;-50
2022/11/19 10:28:28;;;;;;;19.95;15.55;;;;;;;3.01;87.67;101168.72;4991811;28;20060;-50
2022/11/19 10:31:05;;;;;;;20.27;15.80;;;;;;;3.03;87.43;101180.13;4984782;28;20062;-53
2022/11/19 10:34:19;;;;;;;18.65;14.57;;;;;;;2.99;87.50;101182.38;4991945;28;20042;-50
2022/11/19 10:36:59;;;;;;;17.63;14.45;;;;;;;2.99;85.65;101187.78;4981083;28;20049;-52
2022/11/19 10:39:43;;;;;;;18.20;13.98;;;;;;;2.98;86.26;101188.81;4976581;28;20060;-52
2022/11/19 10:42:29;;;;;;;18.90;13.93;;;;;;;3.01;86.41;101195.66;4967244;28;20449;-53
2022/11/19 10:45:21;;;;;;;17.48;13.90;;;;;;;2.96;87.53;101192.75;4976230;28;20046;-53
2022/11/19 10:48:06;;;;;;;17.50;12.95;;;;;;;3.18;87.12;101199.56;4966061;28;20054;-50
2022/11/19 10:50:36;;;;;;;18.05;13.43;;;;;;;3.05;85.20;101196.03;4982009;28;20654;-51
2022/11/19 10:53:24;;;;;;;17.60;14.50;;;;;;;2.96;87.17;101187.38;4982378;28;20096;-52
2022/11/19 10:56:00;;;;;;;17.75;14.23;;;;;;;2.83;86.18;101198.94;5005745;28;20035;-51
2022/11/19 10:58:38;;;;;;;18.05;13.35;;;;;;;2.67;86.07;101199.34;5010958;28;20038;-51
2022/11/19 11:01:34;;;;;;;16.40;13.10;;;;;;;2.72;87.11;101188.84;5000009;28;20043;-49
2022/11/19 11:04:34;;;;;;;19.10;13.27;;;;;;;2.82;86.09;101191.09;4968622;28;20041;-53
2022/11/19 11:07:04;;;;;;;17.05;12.82;;;;;;;2.92;86.40;101191.50;5001679;28;20058;-51
2022/11/19 11:09:34;;;;;;;17.45;11.70;;;;;;;2.99;86.11;101193.16;5013376;28;20068;-51
2022/11/19 11:15:21;;;;;;;14.93;11.90;;;;;;;3.05;84.96;101185.28;4989781;28;20046;-51
2022/11/19 11:18:03;;;;;;;15.60;11.82;;;;;;;2.96;85.56;101188.19;5004606;28;20056;-56
2022/11/19 11:20:31;;;;;;;17.08;11.63;;;;;;;2.88;85.15;101190.25;5006848;28;20492;-53
2022/11/19 11:23:17;;;;;;;14.45;11.02;;;;;;;2.95;85.89;101183.84;5002404;28;20042;-53
2022/11/19 11:26:03;;;;;;;15.50;11.82;;;;;;;3.07;83.89;101184.03;4988461;28;20038;-51
2022/11/19 11:28:31;;;;;;;13.50;10.63;;;;;;;3.03;82.88;101187.34;4988791;28;20042;-52
2022/11/19 11:31:04;;;;;;;13.77;10.52;;;;;;;3.02;82.83;101191.91;4988639;28;20097;-49
2022/11/19 11:33:33;;;;;;;13.90;10.48;;;;;;;3.07;82.82;101184.03;5000588;28;20046;-51
2022/11/19 11:36:23;;;;;;;12.55;9.90;;;;;;;3.01;81.87;101181.34;5006237;28;20065;-51
2022/11/19 11:38:52;;;;;;;14.00;10.10;;;;;;;2.97;82.18;101173.69;4994156;28;20042;-48
2022/11/19 11:41:32;;;;;;;13.75;10.27;;;;;;;3.03;83.03;101176.56;4991879;28;20050;-50
2022/11/19 11:44:22;;;;;;;16.80;10.73;;;;;;;3.04;81.30;101178.25;4995060;28;20042;-53
2022/11/19 11:46:52;;;;;;;13.63;10.07;;;;;;;2.98;81.87;101167.28;4987303;28;20046;-50
2022/11/19 11:49:30;;;;;;;14.80;10.13;;;;;;;2.99;82.85;101166.25;4315898;28;10000683;-49
2022/11/19 11:52:17;;;;;;;13.70;10.95;;;;;;;2.94;83.03;101159.84;4995356;28;20038;-53
2022/11/19 11:55:00;;;;;;;13.95;11.25;;;;;;;2.97;83.26;101170.19;5006467;28;20046;-50
2022/11/19 11:57:36;;;;;;;13.25;10.60;;;;;;;2.95;83.48;101165.00;5004190;28;20046;-48
2022/11/19 12:00:28;;;;;;;13.80;10.18;;;;;;;3.02;84.07;101169.56;4964822;28;20412;-53
2022/11/19 12:03:17;;;;;;;13.95;10.60;;;;;;;2.98;83.26;101169.97;4991853;28;20050;-50